Terminal Aerodrome Forecast
Issued by NWS

Home | Current Version | Previous Version | Text Only | Print | Product List | Glossary On
Versions: 1 2 3 4 5 6 7 8 9 10 11 12 13 14 15 16 17 18
502
FTUS43 KGRR 302340
TAFJXN
TAF
KJXN 302340Z 3100/3124 VRB03KT P6SM FEW250
     FM311200 09004KT P6SM FEW250
     FM312100 13008KT P6SM SCT250=

USA.gov is the U.S. government's official web portal to all federal, state and local government web resources and services.